»·PEaware :: N3891R KOXR-KPMD

N3891R :: KOXR-KPMD

FLIGHT INFORMATION

Flight Status: Arrived
Operator: Privately registered:
United States
More flights under this callsign
Pilot: Markus B. (22479)
Aircraft: BEECH AIRCRAFT BARON
(BE58)
More flights by this aircraft type
Origin: KOXR Oxnard
United States
Destination: KPMD Palmdale AF Plant 42
United States
More flights between these airports :: More routes between these airports
Route: +FIM V386 PMD
File this flight plan on PilotEdge
Remarks:
Altitude:
(Current/Filed)
7,000ft
Speed:
(Current/Filed)
170kts
Departed: 06-Jul-19 02:22 PM
Arrived: 06-Jul-19 03:06 PM
Distance/Time
Traveled:
61nm/0:44
Distance/Time
To Go:
Arrived

Flight Plot

Page will automatically refresh every two minutes.

Flight plan parsing failed; only flown route is shown


Map Options




Map Legend


Flown Route
Filed Route
Departure Airport
Arrival Airport
Navaid (VOR, NDB)
Fix

Horizontal Profiles

Position Reports

Time Latitude Longitude Heading Altitude Ground
Speed
06-Jul-19 14:08 34.199041 -119.205657 0 45ft 0kts
06-Jul-19 14:09 34.199041 -119.205657 360 45ft 0kts
06-Jul-19 14:10 34.199041 -119.205657 0 45ft 0kts
06-Jul-19 14:11 34.199041 -119.205657 360 45ft 0kts
06-Jul-19 14:12 34.199041 -119.205657 360 45ft 0kts
06-Jul-19 14:13 34.199041 -119.205657 360 45ft 0kts
06-Jul-19 14:15 34.199041 -119.205657 360 45ft 0kts
06-Jul-19 14:16 34.199041 -119.205657 360 45ft 0kts
06-Jul-19 14:17 34.199041 -119.205657 360 45ft 0kts
06-Jul-19 14:18 34.199041 -119.205657 360 45ft 0kts
06-Jul-19 14:19 34.199042 -119.205657 0 45ft 0kts
06-Jul-19 14:20 34.199760 -119.200196 92 45ft 28kts
06-Jul-19 14:21 34.199925 -119.197563 21 45ft 0kts
06-Jul-19 14:22 34.200629 -119.218228 267 289ft 129kts
06-Jul-19 14:23 34.198802 -119.260374 267 2137ft 125kts
06-Jul-19 14:24 34.197046 -119.301941 267 3873ft 123kts
06-Jul-19 14:25 34.194898 -119.355402 267 3973ft 179kts
06-Jul-19 14:26 34.226124 -119.370845 55 4960ft 157kts
06-Jul-19 14:27 34.234164 -119.323370 76 6306ft 136kts
06-Jul-19 14:28 34.244452 -119.281069 72 7508ft 133kts
06-Jul-19 14:29 34.258565 -119.229535 71 6971ft 185kts
06-Jul-19 14:30 34.273663 -119.175939 71 6977ft 182kts
06-Jul-19 14:30 34.286523 -119.130348 71 6977ft 181kts
06-Jul-19 14:32 34.305203 -119.064016 71 6977ft 181kts
06-Jul-19 14:33 34.321579 -119.005781 71 7002ft 180kts
06-Jul-19 14:33 34.334836 -118.958521 71 7014ft 181kts
06-Jul-19 14:35 34.353674 -118.891276 71 7014ft 181kts
06-Jul-19 14:36 34.372299 -118.834672 68 7014ft 181kts
06-Jul-19 14:36 34.388250 -118.787645 67 7014ft 181kts
06-Jul-19 14:37 34.407198 -118.731766 67 7014ft 181kts
06-Jul-19 14:39 34.429119 -118.667005 67 7014ft 181kts
06-Jul-19 14:39 34.444839 -118.620611 67 7014ft 181kts
06-Jul-19 14:40 34.463903 -118.564392 67 7014ft 181kts
06-Jul-19 14:41 34.483027 -118.507598 67 7014ft 181kts
06-Jul-19 14:42 34.502173 -118.450632 67 7014ft 181kts
06-Jul-19 14:43 34.521229 -118.393839 67 7014ft 181kts
06-Jul-19 14:44 34.539643 -118.338848 68 7014ft 181kts
06-Jul-19 14:45 34.558741 -118.281741 68 7014ft 182kts
06-Jul-19 14:46 34.577723 -118.224823 68 7014ft 182kts
06-Jul-19 14:47 34.596709 -118.167815 68 7014ft 182kts
06-Jul-19 14:48 34.614273 -118.110098 75 7014ft 182kts
06-Jul-19 14:49 34.631888 -118.052746 81 7008ft 182kts
06-Jul-19 14:50 34.636193 -117.991652 89 7013ft 182kts
06-Jul-19 14:51 34.624241 -117.924922 103 5607ft 211kts
06-Jul-19 14:52 34.611491 -117.857402 103 4988ft 191kts
06-Jul-19 14:53 34.599924 -117.795827 103 4991ft 185kts
06-Jul-19 14:54 34.588490 -117.734928 103 4973ft 185kts
06-Jul-19 14:55 34.598615 -117.682812 15 4970ft 183kts
06-Jul-19 14:56 34.648844 -117.673231 336 4959ft 184kts
06-Jul-19 14:57 34.659947 -117.728775 251 4974ft 183kts
06-Jul-19 14:58 34.648572 -117.789459 262 4974ft 184kts
06-Jul-19 14:59 34.644854 -117.850780 266 4818ft 164kts
06-Jul-19 15:00 34.641195 -117.901461 265 4627ft 151kts
06-Jul-19 15:01 34.638067 -117.952320 266 4351ft 143kts
06-Jul-19 15:02 34.636579 -117.995726 271 3914ft 120kts
06-Jul-19 15:03 34.634976 -118.034107 266 3417ft 114kts
06-Jul-19 15:04 34.632811 -118.072739 266 2588ft 101kts
06-Jul-19 15:05 34.632181 -118.084863 259 2546ft 0kts

Navigation Log

Ident Type
Flight plan parsing failed, navigation log unavailable